Time;durP1;ratioP1;P1;durP2;ratioP2;P2;SDS_P1;SDS_P2;PMS_P1;PMS_P2;Temp;Humidity;BMP_temperature;BMP_pressure;BME280_temperature;BME280_humidity;BME280_pressure;Samples;Min_cycle;Max_cycle;Signal;HPM_P1;HPM_P2
2022/11/09 00:00:40;;;;;;;43.63;28.67;;;;;;;11.72;67.67;95207.06;4143549;28;20140;-77
2022/11/09 00:02:41;;;;;;;45.88;29.02;;;;;;;11.74;67.32;95204.31;4142336;28;20049;-76
2022/11/09 00:04:44;;;;;;;40.00;27.47;;;;;;;11.77;67.27;95212.72;4144139;28;20431;-78
2022/11/09 00:06:46;;;;;;;39.92;26.60;;;;;;;11.75;67.40;95209.41;4143233;28;20283;-78
2022/11/09 00:08:48;;;;;;;41.10;27.38;;;;;;;11.78;67.36;95208.28;4144239;28;21730;-79
2022/11/09 00:10:50;;;;;;;40.78;27.45;;;;;;;11.77;67.19;95210.09;4138989;28;20066;-78
2022/11/09 00:12:52;;;;;;;39.95;26.15;;;;;;;11.80;67.35;95211.56;4144556;28;20066;-81
2022/11/09 00:14:54;;;;;;;40.45;26.30;;;;;;;11.80;67.27;95220.25;4144473;28;20103;-80
2022/11/09 00:16:56;;;;;;;37.50;25.55;;;;;;;11.82;67.21;95220.94;4143471;28;20075;-78
2022/11/09 00:18:58;;;;;;;34.63;25.42;;;;;;;11.80;67.17;95217.63;4143957;28;20118;-79
2022/11/09 00:21:05;;;;;;;37.53;26.33;;;;;;;11.80;67.22;95211.56;4144457;28;20089;-76
2022/11/09 00:23:07;;;;;;;33.50;24.58;;;;;;;11.85;66.93;95218.03;4126508;28;20477;-76
2022/11/09 00:25:09;;;;;;;39.53;25.38;;;;;;;11.85;66.83;95215.41;4143433;28;20080;-80
2022/11/09 00:27:10;;;;;;;40.65;26.70;;;;;;;11.89;66.88;95221.16;4144283;28;20453;-76
2022/11/09 00:29:18;;;;;;;40.40;26.38;;;;;;;11.88;66.90;95209.84;4144844;28;20058;-78
2022/11/09 00:31:21;;;;;;;36.40;26.00;;;;;;;11.86;66.97;95208.34;4143670;28;20050;-76
2022/11/09 00:33:22;;;;;;;35.15;26.42;;;;;;;11.87;67.03;95218.69;4144025;28;20081;-77
2022/11/09 00:35:24;;;;;;;31.60;23.65;;;;;;;11.88;67.10;95217.72;4145044;28;20426;-76
2022/11/09 00:37:28;;;;;;;36.28;24.80;;;;;;;11.90;66.87;95222.03;4144628;28;20129;-78
2022/11/09 00:39:30;;;;;;;35.63;25.15;;;;;;;11.90;66.94;95211.50;4129634;28;20089;-78
2022/11/09 00:41:32;;;;;;;34.88;24.55;;;;;;;11.90;67.02;95219.41;4142444;28;20058;-78
2022/11/09 00:43:33;;;;;;;34.75;24.73;;;;;;;11.91;67.33;95207.91;4135591;28;20096;-78
2022/11/09 00:45:35;;;;;;;37.53;24.50;;;;;;;11.95;66.99;95204.00;4131040;28;20475;-76
2022/11/09 00:47:37;;;;;;;33.38;23.48;;;;;;;11.96;66.98;95205.63;4143816;28;20432;-76
2022/11/09 00:49:39;;;;;;;34.67;23.88;;;;;;;11.91;66.94;95205.28;4142627;28;20064;-77
2022/11/09 00:51:40;;;;;;;34.58;24.27;;;;;;;11.86;67.12;95203.91;4143661;28;20192;-77
2022/11/09 00:53:42;;;;;;;34.22;23.80;;;;;;;11.81;67.33;95207.97;4145199;28;20077;-77
2022/11/09 00:55:58;;;;;;;34.55;24.63;;;;;;;11.74;67.61;95204.31;4147032;28;20082;-75
2022/11/09 00:58:00;;;;;;;31.08;23.33;;;;;;;11.73;67.76;95206.13;4145472;28;20471;-74
2022/11/09 01:00:03;;;;;;;32.90;22.90;;;;;;;11.73;67.37;95208.75;4146319;28;20532;-76
2022/11/09 01:02:04;;;;;;;29.10;20.85;;;;;;;11.67;67.49;95211.97;4144499;28;20080;-76
2022/11/09 01:04:06;;;;;;;33.05;23.77;;;;;;;11.57;67.63;95213.84;4147030;28;20049;-75
2022/11/09 01:06:22;;;;;;;34.30;22.05;;;;;;;11.52;68.06;95209.06;4145127;28;20054;-75
2022/11/09 01:08:23;;;;;;;34.90;22.95;;;;;;;11.55;68.01;95211.41;4144573;28;20081;-74
2022/11/09 01:10:25;;;;;;;33.72;22.17;;;;;;;11.55;67.96;95203.53;4146584;28;20092;-76
2022/11/09 01:12:27;;;;;;;34.10;23.73;;;;;;;11.54;68.19;95206.31;4145264;28;20058;-76
2022/11/09 01:14:28;;;;;;;36.03;23.42;;;;;;;11.59;68.16;95206.66;4146599;28;20134;-75
2022/11/09 01:16:30;;;;;;;30.23;22.30;;;;;;;11.57;68.08;95209.47;4144366;28;20627;-75
2022/11/09 01:18:32;;;;;;;31.77;22.85;;;;;;;11.60;68.08;95206.50;4145565;28;20084;-76
2022/11/09 01:20:38;;;;;;;34.30;22.33;;;;;;;11.58;67.96;95207.66;4145101;28;20138;-75
2022/11/09 01:22:40;;;;;;;30.15;22.42;;;;;;;11.57;67.93;95205.97;4146788;28;20547;-74
2022/11/09 01:24:41;;;;;;;37.00;22.95;;;;;;;11.60;67.94;95203.06;4146482;28;20077;-75
2022/11/09 01:26:43;;;;;;;31.08;22.23;;;;;;;11.55;68.15;95208.78;4146295;28;20120;-75
2022/11/09 01:28:45;;;;;;;32.70;22.80;;;;;;;11.54;68.12;95201.88;4146507;28;20449;-75
2022/11/09 01:30:46;;;;;;;35.80;23.25;;;;;;;11.57;68.19;95206.84;4146094;28;20045;-76
2022/11/09 01:32:48;;;;;;;31.75;22.83;;;;;;;11.56;67.64;95207.78;4143837;28;20137;-76
2022/11/09 01:34:50;;;;;;;33.08;23.67;;;;;;;11.53;67.81;95204.63;4146461;28;20050;-77
2022/11/09 01:36:52;;;;;;;35.08;25.13;;;;;;;11.52;68.10;95203.00;4147490;28;20050;-74
2022/11/09 01:38:53;;;;;;;34.30;23.17;;;;;;;11.48;68.46;95200.66;4146214;28;20053;-75
2022/11/09 01:40:55;;;;;;;32.28;23.60;;;;;;;11.48;68.40;95192.78;4146084;28;20554;-74
2022/11/09 01:42:57;;;;;;;36.90;24.48;;;;;;;11.46;68.36;95200.03;4144648;28;20042;-74
2022/11/09 01:45:21;;;;;;;36.88;23.50;;;;;;;11.43;68.71;95199.50;4146268;28;20042;-77
2022/11/09 01:47:24;;;;;;;35.63;23.58;;;;;;;11.39;68.53;95196.34;4144502;28;20199;-76
2022/11/09 01:49:40;;;;;;;34.25;24.90;;;;;;;11.42;68.79;95193.44;4146022;28;20080;-73
2022/11/09 01:51:47;;;;;;;36.75;23.65;;;;;;;11.44;68.59;95191.47;4144322;28;20096;-70
2022/11/09 01:53:51;;;;;;;35.63;23.85;;;;;;;11.40;68.77;95198.00;4144834;28;20141;-75
2022/11/09 01:55:54;;;;;;;;;;;;;;;11.37;68.92;95192.22;4144776;28;20608;-75
2022/11/09 01:58:08;;;;;;;35.08;23.73;;;;;;;11.35;69.04;95199.44;4144611;28;19921;-75
2022/11/09 02:00:13;;;;;;;32.97;23.58;;;;;;;11.33;68.90;95196.94;4146880;28;20050;-74
2022/11/09 02:02:14;;;;;;;34.47;22.38;;;;;;;11.33;68.91;95193.50;4128427;28;20180;-77
2022/11/09 02:04:21;;;;;;;33.13;23.42;;;;;;;11.33;68.68;95199.56;4144288;28;20409;-75
2022/11/09 02:06:25;;;;;;;35.85;23.55;;;;;;;11.34;68.65;95201.22;4146878;28;20058;-75
2022/11/09 02:08:27;;;;;;;;;;;;;;;11.34;68.65;95201.22;4146337;28;20058;-76
2022/11/09 02:10:39;;;;;;;33.50;23.52;;;;;;;11.33;68.69;95201.38;4142878;28;20036;-75
2022/11/09 02:12:42;;;;;;;30.48;23.50;;;;;;;11.32;68.52;95195.31;4147519;28;20080;-80
2022/11/09 02:14:44;;;;;;;37.05;23.02;;;;;;;11.34;68.67;95197.78;4144800;28;20050;-78
2022/11/09 02:16:46;;;;;;;32.85;23.92;;;;;;;11.34;68.50;95203.03;4114868;28;20088;-72
2022/11/09 02:18:52;;;;;;;34.80;23.17;;;;;;;11.33;68.49;95201.38;4138711;28;20153;-75
2022/11/09 02:20:56;;;;;;;34.45;23.52;;;;;;;11.31;68.64;95208.56;4144319;28;20128;-73
2022/11/09 02:22:57;;;;;;;;;;;;;;;11.25;68.69;95202.16;4144579;28;20101;-72
2022/11/09 02:24:59;;;;;;;32.40;22.90;;;;;;;11.22;68.91;95205.06;4145416;28;19925;-73
2022/11/09 02:27:01;;;;;;;33.15;23.30;;;;;;;11.19;68.72;95203.56;4145617;28;20112;-72
2022/11/09 02:29:05;;;;;;;30.92;23.35;;;;;;;11.21;68.80;95203.41;4143791;28;20073;-73
2022/11/09 02:31:10;;;;;;;32.63;22.98;;;;;;;11.17;68.88;95197.63;4142641;28;20073;-72
2022/11/09 02:33:25;;;;;;;30.27;22.98;;;;;;;11.15;68.78;95207.44;4132463;28;20053;-75
2022/11/09 02:35:27;;;;;;;36.03;23.70;;;;;;;11.19;68.81;95208.81;4143544;28;20101;-74
2022/11/09 02:37:39;;;;;;;34.45;23.20;;;;;;;11.15;68.67;95204.84;4144574;28;20046;-73
2022/11/09 02:39:41;;;;;;;31.23;23.27;;;;;;;11.10;68.94;95207.09;4143737;28;20082;-73
2022/11/09 02:41:54;;;;;;;32.45;23.27;;;;;;;11.10;68.97;95207.09;4128335;28;20562;-73
2022/11/09 02:43:57;;;;;;;36.63;24.07;;;;;;;11.11;68.98;95194.78;4135082;28;20130;-72
2022/11/09 02:45:58;;;;;;;34.05;22.38;;;;;;;11.10;68.49;95203.63;4145452;28;20342;-71
2022/11/09 02:48:00;;;;;;;34.45;24.05;;;;;;;11.03;68.87;95198.16;4144835;28;20435;-72
2022/11/09 02:50:03;;;;;;;31.58;23.33;;;;;;;10.97;68.96;95204.84;4145355;28;20054;-70
2022/11/09 02:52:04;;;;;;;36.28;24.67;;;;;;;10.96;69.02;95202.34;4145600;28;20481;-73
2022/11/09 02:54:06;;;;;;;36.80;24.42;;;;;;;10.99;69.07;95209.91;4144803;28;20093;-74
2022/11/09 02:56:08;;;;;;;35.97;23.40;;;;;;;11.00;69.15;95207.16;4145322;28;20088;-74
2022/11/09 02:58:28;;;;;;;36.15;24.02;;;;;;;11.03;68.74;95208.63;4145910;28;20141;-73
2022/11/09 03:00:30;;;;;;;33.03;24.30;;;;;;;11.04;68.94;95205.06;4143993;28;20137;-73
2022/11/09 03:02:32;;;;;;;35.00;23.15;;;;;;;11.02;68.73;95199.97;4142878;28;20129;-72
2022/11/09 03:04:34;;;;;;;30.67;22.33;;;;;;;11.02;68.74;95205.19;4143552;28;20119;-73
2022/11/09 03:06:35;;;;;;;34.72;23.70;;;;;;;10.98;68.77;95201.22;4144797;28;20061;-75
2022/11/09 03:08:37;;;;;;;37.33;24.58;;;;;;;10.97;69.21;95207.47;4135386;28;20159;-76
2022/11/09 03:10:39;;;;;;;37.78;24.95;;;;;;;10.93;69.20;95208.72;4143091;28;20125;-73
2022/11/09 03:12:41;;;;;;;34.58;24.50;;;;;;;10.95;69.31;95209.41;4144538;28;20053;-75
2022/11/09 03:14:42;;;;;;;36.55;25.95;;;;;;;10.94;69.02;95210.34;4144223;28;20046;-74
2022/11/09 03:16:44;;;;;;;33.65;24.15;;;;;;;10.87;68.74;95209.31;4142064;28;20054;-74
2022/11/09 03:18:51;;;;;;;34.28;23.63;;;;;;;10.87;68.93;95214.56;4144958;28;20669;-75
2022/11/09 03:20:53;;;;;;;32.17;24.33;;;;;;;10.90;69.06;95214.25;4143521;28;20097;-74
2022/11/09 03:22:59;;;;;;;32.17;24.27;;;;;;;10.93;69.01;95211.34;4144776;28;20465;-75
2022/11/09 03:25:00;;;;;;;34.55;23.85;;;;;;;10.92;68.77;95209.69;4144977;28;20054;-75
2022/11/09 03:27:02;;;;;;;35.70;24.27;;;;;;;10.91;68.64;95207.22;4144725;28;20042;-74
2022/11/09 03:29:04;;;;;;;39.78;25.85;;;;;;;10.89;68.65;95201.31;4144431;28;20161;-76
2022/11/09 03:31:05;;;;;;;36.83;24.60;;;;;;;10.88;68.79;95205.72;4142137;28;20574;-75
2022/11/09 03:33:08;;;;;;;35.13;24.55;;;;;;;10.88;68.42;95210.94;4144448;28;20780;-76
2022/11/09 03:35:10;;;;;;;35.10;24.50;;;;;;;10.84;68.67;95207.81;4144665;28;20107;-76
2022/11/09 03:37:12;;;;;;;32.25;22.35;;;;;;;10.82;68.50;95211.56;4144537;28;20132;-75
2022/11/09 03:39:14;;;;;;;35.10;25.90;;;;;;;10.84;68.61;95217.44;4143742;28;20136;-76
2022/11/09 03:41:15;;;;;;;35.55;26.52;;;;;;;10.79;68.32;95215.28;4144476;28;20128;-75
2022/11/09 03:43:17;;;;;;;38.70;26.25;;;;;;;10.74;68.46;95216.72;4144490;28;20453;-74
2022/11/09 03:45:20;;;;;;;38.40;26.13;;;;;;;10.73;68.47;95215.88;4144254;28;20092;-76
2022/11/09 03:47:21;;;;;;;29.75;23.58;;;;;;;10.69;68.29;95221.56;4144869;28;20493;-76
2022/11/09 03:49:23;;;;;;;36.67;25.05;;;;;;;10.65;68.12;95224.47;4150379;28;20064;-76
2022/11/09 03:51:24;;;;;;;33.72;23.98;;;;;;;10.66;68.25;95223.50;4144712;28;20116;-76
2022/11/09 03:53:26;;;;;;;36.10;25.23;;;;;;;10.62;68.48;95218.69;4143802;28;20556;-75
2022/11/09 03:55:28;;;;;;;33.88;24.20;;;;;;;10.61;68.41;95225.75;4144046;28;20147;-74
2022/11/09 03:57:30;;;;;;;35.20;23.77;;;;;;;10.60;68.59;95220.63;4142866;28;20046;-75
2022/11/09 03:59:32;;;;;;;33.25;23.98;;;;;;;10.59;67.96;95222.44;4144439;28;20492;-71
2022/11/09 04:01:33;;;;;;;34.00;23.73;;;;;;;10.61;68.44;95224.94;4142478;28;20089;-70
2022/11/09 04:03:36;;;;;;;34.55;24.48;;;;;;;10.57;68.34;95223.56;4137203;28;20139;-71
2022/11/09 04:05:37;;;;;;;34.60;23.05;;;;;;;10.52;68.32;95221.38;4142934;28;20061;-72
2022/11/09 04:07:39;;;;;;;32.22;24.13;;;;;;;10.49;68.37;95219.03;4144504;28;20080;-71
2022/11/09 04:09:41;;;;;;;36.55;23.65;;;;;;;10.49;68.11;95231.31;4137494;28;20085;-71
2022/11/09 04:11:42;;;;;;;32.42;23.40;;;;;;;10.45;68.55;95225.53;4143990;28;20058;-72
2022/11/09 04:13:44;;;;;;;34.58;22.80;;;;;;;10.46;68.68;95227.19;4144942;28;20074;-72
2022/11/09 04:15:46;;;;;;;31.92;23.30;;;;;;;10.43;68.73;95228.31;4143954;28;20129;-71
2022/11/09 04:17:58;;;;;;;34.90;24.35;;;;;;;10.43;68.42;95224.84;4134282;28;20062;-70
2022/11/09 04:20:00;;;;;;;35.95;24.38;;;;;;;10.42;68.83;95225.84;4142812;28;20125;-73
2022/11/09 04:22:02;;;;;;;32.58;23.50;;;;;;;10.39;68.57;95226.09;4144085;28;20130;-71
2022/11/09 04:24:04;;;;;;;37.05;25.33;;;;;;;10.33;68.57;95222.28;4143939;28;20129;-73
2022/11/09 04:26:06;;;;;;;32.08;23.67;;;;;;;10.34;68.70;95230.97;4144215;28;20053;-74
2022/11/09 04:28:10;;;;;;;34.00;24.30;;;;;;;10.33;68.70;95226.72;4146682;28;20124;-75
2022/11/09 04:30:12;;;;;;;33.45;24.08;;;;;;;10.32;68.84;95223.25;4146537;28;20085;-76
2022/11/09 04:32:14;;;;;;;30.58;23.80;;;;;;;10.33;68.81;95224.91;4145008;28;20085;-75
2022/11/09 04:34:16;;;;;;;33.53;23.77;;;;;;;10.31;68.56;95224.22;4146762;28;20050;-76
2022/11/09 04:36:17;;;;;;;32.22;23.33;;;;;;;10.30;68.46;95227.00;4147639;28;20046;-74
2022/11/09 04:38:19;;;;;;;35.83;24.88;;;;;;;10.29;68.58;95222.69;4147753;28;20548;-76
2022/11/09 04:40:22;;;;;;;31.98;23.88;;;;;;;10.29;68.64;95225.31;4147561;28;20066;-76
2022/11/09 04:42:24;;;;;;;34.15;23.27;;;;;;;10.27;68.83;95222.03;4147263;28;20096;-76
2022/11/09 04:44:25;;;;;;;31.98;23.80;;;;;;;10.24;68.96;95223.13;4130372;28;20054;-77
2022/11/09 04:46:27;;;;;;;35.17;24.08;;;;;;;10.22;69.48;95231.13;4113143;28;20089;-74
2022/11/09 04:48:30;;;;;;;32.60;22.83;;;;;;;10.20;69.25;95230.44;4144041;28;20105;-73
2022/11/09 04:50:32;;;;;;;33.30;24.65;;;;;;;10.18;69.11;95224.53;4145816;28;20046;-72
2022/11/09 04:52:33;;;;;;;30.58;23.27;;;;;;;10.15;69.58;95231.84;4129533;28;20074;-71
2022/11/09 04:54:35;;;;;;;32.55;24.42;;;;;;;10.14;69.21;95230.19;4141806;28;20160;-73
2022/11/09 04:56:37;;;;;;;33.45;23.83;;;;;;;10.14;69.19;95227.56;4146506;28;20078;-71
2022/11/09 04:58:39;;;;;;;30.75;22.80;;;;;;;10.15;69.56;95231.84;4145576;28;20523;-72
2022/11/09 05:00:40;;;;;;;33.10;24.20;;;;;;;10.12;69.45;95234.75;4146352;28;20140;-71
2022/11/09 05:02:42;;;;;;;35.50;24.13;;;;;;;10.13;69.91;95237.22;4146085;28;20076;-72
2022/11/09 05:04:44;;;;;;;34.63;24.02;;;;;;;10.15;69.37;95239.69;4146770;28;20061;-73
2022/11/09 05:06:46;;;;;;;34.17;24.38;;;;;;;10.16;69.39;95234.31;4147046;28;20053;-74
2022/11/09 05:08:48;;;;;;;31.27;22.85;;;;;;;10.21;69.61;95237.31;4146493;28;20053;-73
2022/11/09 05:10:49;;;;;;;34.72;26.45;;;;;;;10.22;69.33;95236.38;4134636;28;20050;-72
2022/11/09 05:12:57;;;;;;;38.45;25.95;;;;;;;10.27;69.18;95237.72;4145873;28;20054;-70
2022/11/09 05:14:58;;;;;;;42.55;25.83;;;;;;;10.25;69.31;95241.31;4146101;28;20353;-71
2022/11/09 05:17:00;;;;;;;33.92;24.52;;;;;;;10.27;69.48;95245.59;4145773;28;20514;-72
2022/11/09 05:19:02;;;;;;;35.60;25.55;;;;;;;10.25;69.07;95237.88;4145192;28;20141;-70
2022/11/09 05:21:06;;;;;;;37.17;25.05;;;;;;;10.30;69.37;95248.75;4146378;28;20476;-69
2022/11/09 05:25:31;;;;;;;33.65;24.45;;;;;;;10.39;68.88;95247.91;4146828;28;20417;-72
2022/11/09 05:27:32;;;;;;;37.47;25.00;;;;;;;10.42;69.17;95252.03;4147273;28;20049;-74
2022/11/09 05:29:34;;;;;;;38.20;25.42;;;;;;;10.41;68.51;95258.22;4146133;28;20080;-72
2022/11/09 05:31:37;;;;;;;40.40;25.55;;;;;;;10.42;68.90;95263.31;4145805;28;20157;-76
2022/11/09 05:33:38;;;;;;;43.90;27.30;;;;;;;10.42;68.90;95255.47;4147110;28;20073;-76
2022/11/09 05:35:40;;;;;;;41.58;27.23;;;;;;;10.46;68.82;95253.41;4146790;28;20061;-78
2022/11/09 05:37:46;;;;;;;36.88;25.90;;;;;;;10.52;68.90;95259.84;4145907;28;20049;-77
2022/11/09 05:39:48;;;;;;;36.40;25.77;;;;;;;10.56;68.70;95256.81;4146407;28;20534;-79
2022/11/09 05:41:50;;;;;;;40.10;25.70;;;;;;;10.58;68.26;95257.47;4146640;28;20184;-75
2022/11/09 05:43:51;;;;;;;34.00;24.52;;;;;;;10.62;68.55;95261.44;4138270;28;20460;-77
2022/11/09 05:45:53;;;;;;;38.55;25.33;;;;;;;10.63;68.48;95259.66;4146052;28;20080;-77
2022/11/09 05:47:55;;;;;;;36.67;25.05;;;;;;;10.62;68.22;95264.06;4145803;28;20587;-76
2022/11/09 05:49:57;;;;;;;35.80;24.10;;;;;;;10.62;68.23;95258.81;4146215;28;20075;-74
2022/11/09 05:51:59;;;;;;;37.42;24.08;;;;;;;10.62;68.58;95268.47;4141269;28;20042;-76
2022/11/09 05:54:01;;;;;;;33.75;23.42;;;;;;;10.51;68.59;95274.72;4136903;28;20062;-80
2022/11/09 05:56:04;;;;;;;35.35;25.17;;;;;;;10.55;69.08;95277.91;4146297;28;20068;-76
2022/11/09 05:58:06;;;;;;;;;;;;;;;10.58;68.88;95277.59;4146701;28;20053;-76
2022/11/09 06:00:08;;;;;;;37.78;24.02;;;;;;;10.64;68.41;95279.63;4144064;28;19987;-78
2022/11/09 06:02:11;;;;;;;35.00;23.90;;;;;;;10.67;68.04;95279.38;4146014;28;20064;-77
2022/11/09 06:04:13;;;;;;;36.28;24.92;;;;;;;10.66;68.27;95290.81;4144961;28;20125;-72
2022/11/09 06:06:16;;;;;;;35.97;25.42;;;;;;;10.71;68.26;95282.50;4145580;28;20145;-72
2022/11/09 06:08:18;;;;;;;42.33;25.80;;;;;;;10.75;68.25;95286.47;4145593;28;20050;-74
2022/11/09 06:10:19;;;;;;;33.75;24.58;;;;;;;10.76;68.50;95288.97;4143473;28;20100;-75
2022/11/09 06:12:21;;;;;;;38.05;25.65;;;;;;;10.79;68.08;95290.47;4145970;28;20130;-73
2022/11/09 06:14:23;;;;;;;37.92;24.70;;;;;;;10.82;67.92;95292.81;4131056;28;20153;-74
2022/11/09 06:16:24;;;;;;;37.15;25.85;;;;;;;10.81;68.18;95291.16;4144780;28;20571;-73
2022/11/09 06:18:28;;;;;;;37.22;24.92;;;;;;;10.84;67.81;95291.69;4144489;28;20046;-74
2022/11/09 06:20:29;;;;;;;37.20;24.75;;;;;;;10.84;68.24;95298.72;4145920;28;20514;-73
2022/11/09 06:22:31;;;;;;;46.88;26.15;;;;;;;10.91;68.37;95293.72;4145692;28;20054;-75
2022/11/09 06:24:33;;;;;;;43.58;26.13;;;;;;;10.95;67.92;95293.28;4145102;28;20165;-75
2022/11/09 06:26:35;;;;;;;43.92;25.42;;;;;;;10.97;67.89;95295.75;4145714;28;20089;-72
2022/11/09 06:28:38;;;;;;;38.72;24.67;;;;;;;10.99;68.38;95296.41;4145785;28;20484;-69
2022/11/09 06:30:39;;;;;;;41.47;24.98;;;;;;;11.04;68.39;95295.03;4144152;28;20476;-74
2022/11/09 06:32:41;;;;;;;45.80;24.83;;;;;;;11.09;67.77;95293.75;4143597;28;20057;-75
2022/11/09 06:34:43;;;;;;;40.10;25.73;;;;;;;11.14;67.93;95288.88;4145643;28;20081;-72
2022/11/09 06:36:44;;;;;;;41.08;25.60;;;;;;;11.16;67.92;95290.38;4145591;28;20050;-73
2022/11/09 06:38:50;;;;;;;38.17;24.73;;;;;;;11.21;67.86;95290.78;4145280;28;20112;-72
2022/11/09 06:40:53;;;;;;;36.65;24.48;;;;;;;11.30;67.56;95294.31;4145364;28;20125;-73
2022/11/09 06:42:59;;;;;;;44.33;26.88;;;;;;;11.37;67.71;95290.09;4140539;28;20114;-74
2022/11/09 06:45:00;;;;;;;36.28;24.92;;;;;;;11.43;67.13;95288.69;4139315;28;20388;-73
2022/11/09 06:47:02;;;;;;;35.03;23.17;;;;;;;11.48;67.43;95287.25;4144504;28;20125;-73
2022/11/09 06:49:04;;;;;;;36.40;24.67;;;;;;;11.58;66.81;95294.25;4145073;28;20100;-75
2022/11/09 06:51:06;;;;;;;38.22;23.60;;;;;;;11.67;66.94;95290.72;4143362;28;20053;-73
2022/11/09 06:53:10;;;;;;;40.30;24.80;;;;;;;11.78;66.93;95292.28;4143649;28;20093;-74
2022/11/09 06:55:11;;;;;;;;;;;;;;;11.86;66.42;95289.72;4133000;28;20058;-75
2022/11/09 06:57:13;;;;;;;36.75;24.10;;;;;;;11.94;66.21;95294.22;4143906;28;20376;-73
2022/11/09 06:59:15;;;;;;;33.88;25.38;;;;;;;11.99;66.16;95295.41;4145671;28;20133;-73
2022/11/09 07:01:18;;;;;;;34.45;25.23;;;;;;;12.04;66.30;95298.41;4142435;28;20137;-75
2022/11/09 07:03:21;;;;;;;41.60;24.80;;;;;;;12.08;66.13;95285.78;4143904;28;20045;-73
2022/11/09 07:05:23;;;;;;;39.47;24.65;;;;;;;12.14;66.34;95297.50;4144420;28;20050;-73
2022/11/09 07:07:25;;;;;;;42.28;24.95;;;;;;;12.18;66.12;95296.22;4144078;28;20132;-74
2022/11/09 07:09:28;;;;;;;33.45;23.15;;;;;;;12.25;66.39;95291.97;4142945;28;20065;-74
2022/11/09 07:11:30;;;;;;;33.47;24.15;;;;;;;12.25;66.22;95292.81;4134283;28;20049;-73
2022/11/09 07:13:32;;;;;;;39.25;25.00;;;;;;;12.27;66.82;95293.47;4144020;28;20229;-73
2022/11/09 07:15:34;;;;;;;38.38;25.35;;;;;;;12.32;66.87;95289.56;4144394;28;20053;-74
2022/11/09 07:17:38;;;;;;;39.60;24.98;;;;;;;12.37;66.53;95282.88;4143176;28;20096;-77
2022/11/09 07:19:40;;;;;;;39.25;25.98;;;;;;;12.42;66.50;95290.28;4145056;28;20660;-75
2022/11/09 07:21:42;;;;;;;36.40;24.33;;;;;;;12.50;66.11;95283.25;4144622;28;20053;-72
2022/11/09 07:23:46;;;;;;;40.00;26.88;;;;;;;12.56;65.71;95283.59;4143131;28;20058;-74
2022/11/09 07:25:47;;;;;;;44.65;27.00;;;;;;;12.47;66.01;95286.19;4143912;28;20137;-75
2022/11/09 07:27:49;;;;;;;37.90;26.48;;;;;;;12.54;65.89;95282.94;4144619;28;20040;-74
2022/11/09 07:29:51;;;;;;;40.97;27.70;;;;;;;12.63;65.64;95288.09;4143465;28;20420;-74
2022/11/09 07:31:53;;;;;;;42.28;26.52;;;;;;;12.77;65.67;95284.03;4143858;28;20081;-76
2022/11/09 07:33:57;;;;;;;37.88;25.85;;;;;;;12.83;65.35;95279.97;4143171;28;20045;-75
2022/11/09 07:36:00;;;;;;;39.95;24.90;;;;;;;12.88;65.38;95282.94;4144466;28;20077;-74
2022/11/09 07:38:01;;;;;;;40.13;25.83;;;;;;;12.89;64.71;95287.22;4143102;28;20042;-75
2022/11/09 07:40:04;;;;;;;40.17;25.45;;;;;;;12.98;64.95;95282.81;4143009;28;20050;-73
2022/11/09 07:42:05;;;;;;;40.05;25.73;;;;;;;13.08;64.69;95281.69;4142847;28;20108;-74
2022/11/09 07:44:08;;;;;;;39.60;26.92;;;;;;;13.20;64.28;95284.00;4145084;28;20060;-77
2022/11/09 07:46:10;;;;;;;41.15;27.08;;;;;;;13.28;64.03;95281.41;4143150;28;20073;-78
2022/11/09 07:48:13;;;;;;;40.83;28.13;;;;;;;13.38;63.66;95281.28;4143404;28;20053;-78
2022/11/09 07:50:14;;;;;;;41.60;27.90;;;;;;;13.49;63.80;95287.06;4144727;28;20074;-78
2022/11/09 07:52:16;;;;;;;42.60;26.98;;;;;;;13.32;63.88;95285.41;4144670;28;20053;-80
2022/11/09 07:54:18;;;;;;;44.58;28.55;;;;;;;13.21;64.41;95285.69;4144406;28;20061;-77
2022/11/09 07:56:20;;;;;;;44.03;27.33;;;;;;;13.24;64.14;95285.34;4144439;28;20064;-76
2022/11/09 07:58:21;;;;;;;40.67;26.42;;;;;;;13.40;64.44;95277.53;4144335;28;20473;-78
2022/11/09 08:00:24;;;;;;;41.25;27.33;;;;;;;13.51;63.55;95286.91;4144546;28;20052;-79
2022/11/09 08:02:25;;;;;;;43.22;26.00;;;;;;;13.57;63.71;95280.16;4143785;28;20153;-78
2022/11/09 08:04:27;;;;;;;42.75;25.27;;;;;;;13.68;63.34;95282.47;4144889;28;20061;-80
2022/11/09 08:06:29;;;;;;;39.95;25.67;;;;;;;13.77;63.12;95286.78;4143674;28;20054;-76
2022/11/09 08:08:31;;;;;;;37.92;27.35;;;;;;;13.89;62.66;95281.97;4144414;28;20196;-76
2022/11/09 08:10:34;;;;;;;41.15;26.67;;;;;;;14.03;62.00;95283.97;4143674;28;20077;-79
2022/11/09 08:12:35;;;;;;;39.85;27.35;;;;;;;14.08;61.34;95286.09;4142822;28;20152;-77
2022/11/09 08:14:38;;;;;;;36.42;25.58;;;;;;;14.11;61.42;95288.38;4131975;28;20494;-77
2022/11/09 08:16:39;;;;;;;39.45;26.38;;;;;;;14.21;61.78;95288.22;4143107;28;20080;-76
2022/11/09 08:18:41;;;;;;;38.83;26.80;;;;;;;14.20;61.11;95284.78;4144000;28;20572;-76
2022/11/09 08:20:43;;;;;;;41.92;25.63;;;;;;;14.29;60.49;95283.75;4144679;28;20104;-80
2022/11/09 08:22:46;;;;;;;39.42;25.88;;;;;;;14.43;60.52;95289.31;4143049;28;20110;-77
2022/11/09 08:24:47;;;;;;;34.40;23.85;;;;;;;14.56;60.24;95281.75;4142685;28;20552;-77
2022/11/09 08:26:49;;;;;;;36.80;24.35;;;;;;;14.64;59.75;95279.09;4143804;28;20051;-76
2022/11/09 08:28:51;;;;;;;36.80;25.45;;;;;;;14.71;59.57;95284.50;4141221;28;20188;-81
2022/11/09 08:30:58;;;;;;;38.50;25.67;;;;;;;14.71;59.19;95280.06;4141980;28;20164;-77
2022/11/09 08:33:02;;;;;;;37.50;25.42;;;;;;;14.66;59.51;95285.00;4142248;28;20140;-80
2022/11/09 08:35:04;;;;;;;35.80;25.33;;;;;;;14.73;59.53;95283.34;4142757;28;20515;-80
2022/11/09 08:37:06;;;;;;;37.33;25.20;;;;;;;14.85;59.15;95285.63;4142925;28;20057;-78
2022/11/09 08:39:08;;;;;;;37.80;24.23;;;;;;;14.98;58.85;95288.53;4143914;28;20042;-79
2022/11/09 08:41:11;;;;;;;33.95;23.17;;;;;;;15.00;58.19;95283.09;4134603;28;20089;-78
2022/11/09 08:43:14;;;;;;;37.42;23.58;;;;;;;15.04;58.26;95282.56;4138777;28;20057;-79
2022/11/09 08:45:16;;;;;;;31.13;23.38;;;;;;;15.15;58.15;95276.91;4142828;28;20089;-78
2022/11/09 08:47:18;;;;;;;34.75;24.70;;;;;;;15.14;57.80;95277.91;4144099;28;20050;-77
2022/11/09 08:49:20;;;;;;;37.17;24.20;;;;;;;15.19;57.70;95281.84;4142707;28;20045;-77
2022/11/09 08:51:22;;;;;;;35.17;25.50;;;;;;;15.28;57.65;95283.44;4142903;28;20058;-76
2022/11/09 08:53:26;;;;;;;33.75;24.05;;;;;;;15.42;57.40;95284.50;4143554;28;20054;-76
2022/11/09 08:55:28;;;;;;;33.28;24.05;;;;;;;15.59;56.71;95283.38;4142724;28;20058;-76
2022/11/09 08:57:30;;;;;;;37.83;24.95;;;;;;;15.71;56.42;95282.03;4143033;28;20496;-76
2022/11/09 08:59:31;;;;;;;38.75;24.88;;;;;;;15.76;56.06;95273.56;4144282;28;20404;-76
2022/11/09 09:01:33;;;;;;;33.45;24.88;;;;;;;15.43;56.06;95280.88;4140659;28;20082;-76
2022/11/09 09:03:35;;;;;;;42.13;25.48;;;;;;;15.15;56.82;95282.16;4144000;28;20515;-74
2022/11/09 09:05:37;;;;;;;39.20;26.42;;;;;;;15.20;56.85;95284.28;4143806;28;20448;-74
2022/11/09 09:07:39;;;;;;;36.90;26.17;;;;;;;15.35;57.13;95282.53;4143548;28;20136;-76
2022/11/09 09:09:41;;;;;;;37.17;25.08;;;;;;;15.57;56.79;95283.59;4142220;28;20481;-74
2022/11/09 09:11:42;;;;;;;37.15;24.88;;;;;;;15.75;56.47;95285.16;4143925;28;20062;-76
2022/11/09 09:13:44;;;;;;;34.60;24.65;;;;;;;15.93;56.09;95284.81;4145623;28;20077;-74
2022/11/09 09:15:45;;;;;;;34.10;25.63;;;;;;;15.97;55.66;95281.66;4146098;28;20062;-74
2022/11/09 09:17:47;;;;;;;38.47;24.30;;;;;;;16.04;55.21;95281.75;4145664;28;20148;-75
2022/11/09 09:19:49;;;;;;;33.75;24.75;;;;;;;16.16;55.40;95275.03;4146576;28;20124;-75
2022/11/09 09:21:51;;;;;;;31.67;23.10;;;;;;;16.25;55.02;95273.16;4146230;28;20097;-74
2022/11/09 09:23:53;;;;;;;35.20;24.15;;;;;;;16.32;54.74;95279.34;4146391;28;20062;-74
2022/11/09 09:25:56;;;;;;;35.50;24.42;;;;;;;16.41;54.58;95268.69;4146664;28;20133;-75
2022/11/09 09:27:59;;;;;;;31.80;23.98;;;;;;;16.49;54.10;95265.97;4145122;28;20050;-75